^^
Saratoga-Weather Station Historical Data
Daily Summary for January 11, 2021 Units:  Metric    English   Both
Daily Weekly Monthly Yearly Custom
  High: Low: Average:
Temperature: 24.4 °C 13.4 °C 18 °C
Dew Point: 16.7 °C 12.5 °C 14.5 °C
Humidity: 95% 57% 82%
Wind Speed: 11.1km/h 0km/h 1.8km/h
Wind Gust: 16.1km/h - -
Wind- - WSW
Pressure: 1016.9 hPa 1013.2 hPa -
Precipitation: 0.0 mm    
Historical Graphs
 
 
Tabular Data for January 11, 2021
Time Temperature Dew Point Pressure Wind Wind Speed Wind Gust Humidity Rainfall Rate (Hourly) solar
00:02 15.7 °C 14.7 °C 1014.9 hPa Calm     94% 0.0 mm 0 W/m2
00:07 15.7 °C 14.7 °C 1014.9 hPa West 3.2 km/h 6.4 km/h 94% 0.0 mm 0 W/m2
00:12 15.7 °C 14.9 °C 1015.2 hPa West 3.2 km/h 6.4 km/h 95% 0.0 mm 0 W/m2
00:17 15.7 °C 14.9 °C 1015.2 hPa WSW 3.2 km/h 9.7 km/h 95% 0.0 mm 0 W/m2
00:22 15.7 °C 14.9 °C 1014.9 hPa West 3.2 km/h 9.7 km/h 95% 0.0 mm 0 W/m2
00:27 15.8 °C 15 °C 1015.2 hPa West 3.2 km/h 4.8 km/h 95% 0.0 mm 0 W/m2
00:32 15.8 °C 14.8 °C 1015.2 hPa WNW 3.2 km/h 3.2 km/h 94% 0.0 mm 0 W/m2
00:37 15.8 °C 14.8 °C 1015.2 hPa WNW 1.4 km/h 6.4 km/h 94% 0.0 mm 0 W/m2
00:42 15.8 °C 14.8 °C 1015.2 hPa WNW 3.2 km/h 4.8 km/h 94% 0.0 mm 0 W/m2
00:47 15.8 °C 14.8 °C 1015.2 hPa West 3.2 km/h 4.8 km/h 94% 0.0 mm 0 W/m2
00:52 15.7 °C 14.7 °C 1015.2 hPa West 4.7 km/h 6.4 km/h 94% 0.0 mm 0 W/m2
00:57 15.7 °C 14.7 °C 1015.2 hPa West 4.7 km/h 9.7 km/h 94% 0.0 mm 0 W/m2
01:02 15.7 °C 14.7 °C 1014.9 hPa WSW 4.7 km/h 11.3 km/h 94% 0.0 mm 0 W/m2
01:07 15.7 °C 14.7 °C 1014.9 hPa WNW 3.2 km/h 6.4 km/h 94% 0.0 mm 0 W/m2
01:12 15.6 °C 14.6 °C 1015.2 hPa WNW 6.4 km/h 14.5 km/h 94% 0.0 mm 0 W/m2
01:17 15.6 °C 14.6 °C 1014.9 hPa West 3.2 km/h 6.4 km/h 94% 0.0 mm 0 W/m2
01:22 15.5 °C 14.5 °C 1015.2 hPa West 4.7 km/h 9.7 km/h 94% 0.0 mm 0 W/m2
01:27 15.4 °C 14.4 °C 1015.2 hPa West 11.1 km/h 12.9 km/h 94% 0.0 mm 0 W/m2
01:32 15.3 °C 14.3 °C 1015.2 hPa West 1.4 km/h 11.3 km/h 94% 0.0 mm 0 W/m2
01:37 15.3 °C 14.3 °C 1015.2 hPa West 4.7 km/h 12.9 km/h 94% 0.0 mm 0 W/m2
01:42 15.2 °C 14.2 °C 1015.2 hPa West 6.4 km/h 6.4 km/h 94% 0.0 mm 0 W/m2
01:47 15.1 °C 14.1 °C 1015.2 hPa WNW 6.4 km/h 12.9 km/h 94% 0.0 mm 0 W/m2
01:52 14.9 °C 13.9 °C 1015.2 hPa West 3.2 km/h 11.3 km/h 94% 0.0 mm 0 W/m2
01:57 14.8 °C 13.8 °C 1015.2 hPa WSW 4.7 km/h 6.4 km/h 94% 0.0 mm 0 W/m2
02:02 14.7 °C 13.7 °C 1015.2 hPa West 3.2 km/h 6.4 km/h 94% 0.0 mm 0 W/m2
02:07 14.6 °C 13.6 °C 1015.6 hPa WNW 6.4 km/h 9.7 km/h 94% 0.0 mm 0 W/m2
02:12 14.5 °C 13.5 °C 1015.6 hPa West 3.2 km/h 6.4 km/h 94% 0.0 mm 0 W/m2
02:17 14.4 °C 13.4 °C 1015.6 hPa West 1.4 km/h 6.4 km/h 94% 0.0 mm 0 W/m2
02:22 14.3 °C 13.2 °C 1015.6 hPa WSW 4.7 km/h 11.3 km/h 93% 0.0 mm 0 W/m2
02:27 14.2 °C 13.2 °C 1015.6 hPa WNW 4.7 km/h 11.3 km/h 94% 0.0 mm 0 W/m2
02:32 14.1 °C 13.1 °C 1015.6 hPa West 1.4 km/h 8 km/h 94% 0.0 mm 0 W/m2
02:37 13.9 °C 12.8 °C 1015.6 hPa West 4.7 km/h 11.3 km/h 93% 0.0 mm 0 W/m2
02:42 13.9 °C 12.9 °C 1015.6 hPa WSW 6.4 km/h 12.9 km/h 94% 0.0 mm 0 W/m2
02:47 13.8 °C 12.9 °C 1015.6 hPa WSW 6.4 km/h 9.7 km/h 94% 0.0 mm 0 W/m2
02:52 13.8 °C 12.9 °C 1015.6 hPa WNW 6.4 km/h 16.1 km/h 94% 0.0 mm 0 W/m2
02:57 13.8 °C 12.9 °C 1015.6 hPa WNW 4.7 km/h 9.7 km/h 94% 0.0 mm 0 W/m2
03:02 13.7 °C 12.8 °C 1015.6 hPa WNW 4.7 km/h 16.1 km/h 94% 0.0 mm 0 W/m2
03:07 13.7 °C 12.6 °C 1015.2 hPa West 3.2 km/h 6.4 km/h 93% 0.0 mm 0 W/m2
03:12 13.6 °C 12.5 °C 1015.6 hPa West 3.2 km/h 6.4 km/h 93% 0.0 mm 0 W/m2
03:17 13.6 °C 12.5 °C 1015.6 hPa West 1.4 km/h 6.4 km/h 93% 0.0 mm 0 W/m2
03:22 13.5 °C 12.6 °C 1015.6 hPa West 4.7 km/h 11.3 km/h 94% 0.0 mm 0 W/m2
03:27 13.4 °C 12.5 °C 1015.2 hPa West 3.2 km/h 4.8 km/h 94% 0.0 mm 0 W/m2
03:32 13.4 °C 12.5 °C 1015.6 hPa WNW 3.2 km/h 11.3 km/h 94% 0.0 mm 0 W/m2
03:37 13.4 °C 12.5 °C 1015.6 hPa West 6.4 km/h 12.9 km/h 94% 0.0 mm 0 W/m2
03:42 13.4 °C 12.5 °C 1015.6 hPa WNW 1.4 km/h 6.4 km/h 94% 0.0 mm 0 W/m2
03:47 13.4 °C 12.5 °C 1015.6 hPa West 3.2 km/h 6.4 km/h 94% 0.0 mm 0 W/m2
03:52 13.4 °C 12.5 °C 1015.6 hPa WNW 4.7 km/h 9.7 km/h 94% 0.0 mm 0 W/m2
03:57 13.4 °C 12.5 °C 1015.6 hPa WNW 4.7 km/h 9.7 km/h 94% 0.0 mm 0 W/m2
04:02 13.5 °C 12.6 °C 1015.2 hPa West 3.2 km/h 4.8 km/h 94% 0.0 mm 0 W/m2
04:07 13.6 °C 12.7 °C 1015.6 hPa WNW 1.4 km/h 8 km/h 94% 0.0 mm 0 W/m2
04:12 13.6 °C 12.7 °C 1015.6 hPa WNW 3.2 km/h 6.4 km/h 94% 0.0 mm 0 W/m2
04:17 13.7 °C 12.8 °C 1015.6 hPa WNW 4.7 km/h 9.7 km/h 94% 0.0 mm 0 W/m2
04:22 13.7 °C 12.8 °C 1015.6 hPa West 4.7 km/h 12.9 km/h 94% 0.0 mm 0 W/m2
04:27 13.8 °C 12.9 °C 1015.6 hPa WNW 4.7 km/h 8 km/h 94% 0.0 mm 0 W/m2
04:32 13.8 °C 12.9 °C 1015.6 hPa WNW 4.7 km/h 12.9 km/h 94% 0.0 mm 0 W/m2
04:37 13.8 °C 12.9 °C 1015.9 hPa West 4.7 km/h 8 km/h 94% 0.0 mm 0 W/m2
04:42 13.9 °C 12.8 °C 1015.9 hPa West 4.7 km/h 11.3 km/h 93% 0.0 mm 0 W/m2
04:47 13.9 °C 12.8 °C 1015.9 hPa NW 1.4 km/h 1.6 km/h 93% 0.0 mm 0 W/m2
04:52 13.9 °C 12.8 °C 1016.3 hPa Calm   11.3 km/h 93% 0.0 mm 0 W/m2
04:57 13.8 °C 12.7 °C 1016.3 hPa West 1.4 km/h 4.8 km/h 93% 0.0 mm 0 W/m2
05:02 13.8 °C 12.7 °C 1015.9 hPa West 3.2 km/h 11.3 km/h 93% 0.0 mm 0 W/m2
05:07 13.9 °C 12.9 °C 1016.3 hPa West 11.1 km/h 11.3 km/h 94% 0.0 mm 0 W/m2
05:12 13.9 °C 12.9 °C 1016.3 hPa SW 1.4 km/h 6.4 km/h 94% 0.0 mm 0 W/m2
05:17 13.9 °C 12.9 °C 1015.9 hPa WNW 1.4 km/h 3.2 km/h 94% 0.0 mm 0 W/m2
05:22 14 °C 13 °C 1015.9 hPa NW 3.2 km/h 4.8 km/h 94% 0.0 mm 0 W/m2
05:27 14.1 °C 13.1 °C 1015.9 hPa Calm   3.2 km/h 94% 0.0 mm 0 W/m2
05:32 14.1 °C 13.1 °C 1015.9 hPa WNW 1.4 km/h 3.2 km/h 94% 0.0 mm 0 W/m2
05:37 14.1 °C 13.1 °C 1015.9 hPa Calm     94% 0.0 mm 0 W/m2
05:42 14.1 °C 13.1 °C 1015.9 hPa Calm     94% 0.0 mm 0 W/m2
05:47 14.1 °C 13.1 °C 1016.3 hPa Calm     94% 0.0 mm 0 W/m2
05:52 14.1 °C 13.1 °C 1016.3 hPa Calm     94% 0.0 mm 0 W/m2
05:57 14.1 °C 13.1 °C 1016.3 hPa Calm     94% 0.0 mm 0 W/m2
06:02 14.1 °C 13.1 °C 1015.9 hPa Calm     94% 0.0 mm 5 W/m2
06:07 14.1 °C 13.1 °C 1015.9 hPa WNW 1.4 km/h 3.2 km/h 94% 0.0 mm 11 W/m2
06:12 14 °C 13 °C 1015.9 hPa Calm   3.2 km/h 94% 0.0 mm 16 W/m2
06:17 14 °C 13 °C 1015.9 hPa Calm     94% 0.0 mm 16 W/m2
06:22 14 °C 13.2 °C 1015.9 hPa Calm   1.6 km/h 95% 0.0 mm 16 W/m2
06:27 14.1 °C 13.3 °C 1015.9 hPa Calm     95% 0.0 mm 12 W/m2
06:32 14.1 °C 13.3 °C 1015.9 hPa Calm     95% 0.0 mm 16 W/m2
06:37 14.1 °C 13.3 °C 1015.9 hPa Calm   3.2 km/h 95% 0.0 mm 14 W/m2
06:42 14.1 °C 13.3 °C 1015.9 hPa Calm   1.6 km/h 95% 0.0 mm 39 W/m2
06:47 14.1 °C 13.3 °C 1015.9 hPa Calm   1.6 km/h 95% 0.0 mm 47 W/m2
06:52 14.2 °C 13.4 °C 1015.9 hPa WNW 1.4 km/h 4.8 km/h 95% 0.0 mm 60 W/m2
06:57 14.2 °C 13.4 °C 1015.9 hPa West 1.4 km/h 4.8 km/h 95% 0.0 mm 63 W/m2
07:02 14.2 °C 13.4 °C 1015.9 hPa West 3.2 km/h 6.4 km/h 95% 0.0 mm 65 W/m2
07:07 14.3 °C 13.5 °C 1015.9 hPa NW 3.2 km/h 6.4 km/h 95% 0.0 mm 74 W/m2
07:12 14.3 °C 13.5 °C 1015.9 hPa WSW 4.7 km/h 6.4 km/h 95% 0.0 mm 69 W/m2
07:17 14.3 °C 13.5 °C 1015.9 hPa NW 4.7 km/h 9.7 km/h 95% 0.0 mm 62 W/m2
07:22 14.4 °C 13.4 °C 1016.3 hPa WNW 1.4 km/h 4.8 km/h 94% 0.0 mm 62 W/m2
07:27 14.4 °C 13.4 °C 1016.3 hPa WNW 1.4 km/h 9.7 km/h 94% 0.0 mm 63 W/m2
07:32 14.5 °C 13.5 °C 1016.3 hPa NNW 3.2 km/h 3.2 km/h 94% 0.0 mm 42 W/m2
07:38 14.4 °C 13.4 °C 1016.3 hPa NNW 1.4 km/h 4.8 km/h 94% 0.0 mm 40 W/m2
07:43 14.5 °C 13.5 °C 1016.3 hPa NNW 3.2 km/h 6.4 km/h 94% 0.0 mm 49 W/m2
07:48 14.6 °C 13.6 °C 1016.3 hPa Calm   1.6 km/h 94% 0.0 mm 49 W/m2
07:53 14.6 °C 13.5 °C 1016.3 hPa NW 1.4 km/h 6.4 km/h 93% 0.0 mm 63 W/m2
07:58 14.6 °C 13.5 °C 1016.3 hPa WNW 1.4 km/h 6.4 km/h 93% 0.0 mm 72 W/m2
08:03 14.7 °C 13.6 °C 1016.6 hPa Calm   3.2 km/h 93% 0.0 mm 90 W/m2
08:08 14.7 °C 13.6 °C 1016.6 hPa Calm   4.8 km/h 93% 0.0 mm 79 W/m2
08:13 14.8 °C 13.7 °C 1016.6 hPa Calm     93% 0.0 mm 65 W/m2
08:18 14.8 °C 13.5 °C 1016.6 hPa WNW 1.4 km/h 4.8 km/h 92% 0.0 mm 76 W/m2
08:23 14.9 °C 13.6 °C 1016.6 hPa Calm   3.2 km/h 92% 0.0 mm 79 W/m2
08:28 14.9 °C 13.6 °C 1016.6 hPa WNW 1.4 km/h 4.8 km/h 92% 0.0 mm 54 W/m2
08:33 15 °C 13.7 °C 1016.6 hPa Calm   1.6 km/h 92% 0.0 mm 58 W/m2
08:38 15 °C 13.7 °C 1016.6 hPa Calm   3.2 km/h 92% 0.0 mm 72 W/m2
08:43 15.1 °C 13.8 °C 1016.6 hPa Calm     92% 0.0 mm 109 W/m2
08:48 15.1 °C 13.8 °C 1016.6 hPa Calm   1.6 km/h 92% 0.0 mm 132 W/m2
08:53 15.2 °C 13.9 °C 1016.9 hPa North 1.4 km/h 3.2 km/h 92% 0.0 mm 100 W/m2
08:58 15.3 °C 14 °C 1016.9 hPa Calm   1.6 km/h 92% 0.0 mm 114 W/m2
09:03 15.4 °C 13.9 °C 1016.9 hPa Calm     91% 0.0 mm 128 W/m2
09:08 15.5 °C 14 °C 1016.9 hPa West 1.4 km/h 3.2 km/h 91% 0.0 mm 123 W/m2
09:13 15.6 °C 14 °C 1016.6 hPa Calm   3.2 km/h 90% 0.0 mm 111 W/m2
09:18 15.6 °C 14 °C 1016.9 hPa Calm   1.6 km/h 90% 0.0 mm 104 W/m2
09:23 15.6 °C 13.8 °C 1016.9 hPa Calm     89% 0.0 mm 97 W/m2
09:28 15.6 °C 13.8 °C 1016.9 hPa Calm   1.6 km/h 89% 0.0 mm 83 W/m2
09:33 15.7 °C 14.1 °C 1016.6 hPa Calm   1.6 km/h 90% 0.0 mm 98 W/m2
09:38 15.7 °C 13.9 °C 1016.6 hPa Calm     89% 0.0 mm 100 W/m2
09:43 15.8 °C 14.2 °C 1016.6 hPa West 1.4 km/h 3.2 km/h 90% 0.0 mm 118 W/m2
09:48 15.8 °C 14 °C 1016.9 hPa Calm     89% 0.0 mm 144 W/m2
09:53 15.8 °C 14 °C 1016.9 hPa NE 1.4 km/h 3.2 km/h 89% 0.0 mm 204 W/m2
09:58 15.9 °C 14.1 °C 1016.9 hPa Calm   1.6 km/h 89% 0.0 mm 230 W/m2
10:03 16 °C 14.2 °C 1016.9 hPa Calm   3.2 km/h 89% 0.0 mm 162 W/m2
10:08 16.2 °C 14.4 °C 1016.9 hPa Calm   1.6 km/h 89% 0.0 mm 165 W/m2
10:13 16.2 °C 14.4 °C 1016.9 hPa East 3.2 km/h 3.2 km/h 89% 0.0 mm 144 W/m2
10:18 16.2 °C 14.4 °C 1016.9 hPa Calm   1.6 km/h 89% 0.0 mm 141 W/m2
10:23 16.2 °C 14.6 °C 1016.9 hPa Calm   3.2 km/h 90% 0.0 mm 174 W/m2
10:28 16.3 °C 14.8 °C 1016.9 hPa Calm   1.6 km/h 91% 0.0 mm 199 W/m2
10:33 16.3 °C 14.8 °C 1016.9 hPa Calm   3.2 km/h 91% 0.0 mm 142 W/m2
10:38 16.2 °C 14.6 °C 1016.9 hPa NE 1.4 km/h 3.2 km/h 90% 0.0 mm 142 W/m2
10:43 16.2 °C 14.7 °C 1016.9 hPa NE 1.4 km/h 3.2 km/h 91% 0.0 mm 149 W/m2
10:48 16.3 °C 14.8 °C 1016.9 hPa Calm   1.6 km/h 91% 0.0 mm 169 W/m2
10:53 16.2 °C 14.6 °C 1016.9 hPa Calm   3.2 km/h 90% 0.0 mm 146 W/m2
10:58 16.1 °C 14.3 °C 1016.9 hPa ENE 3.2 km/h 3.2 km/h 89% 0.0 mm 223 W/m2
11:03 16.2 °C 14.4 °C 1016.9 hPa Calm   1.6 km/h 89% 0.0 mm 271 W/m2
11:08 16.4 °C 14.6 °C 1016.9 hPa Calm   1.6 km/h 89% 0.0 mm 278 W/m2
11:13 16.7 °C 14.9 °C 1016.9 hPa Calm   3.2 km/h 89% 0.0 mm 800 W/m2
11:18 17.1 °C 15.1 °C 1016.9 hPa Calm   1.6 km/h 88% 0.0 mm 853 W/m2
11:23 17.4 °C 15 °C 1016.9 hPa NNW 3.2 km/h 4.8 km/h 86% 0.0 mm 837 W/m2
11:28 17.8 °C 15.2 °C 1016.9 hPa Calm   4.8 km/h 85% 0.0 mm 308 W/m2
11:33 18.1 °C 15.2 °C 1016.9 hPa Calm   1.6 km/h 83% 0.0 mm 258 W/m2
11:39 18.3 °C 15.2 °C 1016.9 hPa West 1.4 km/h 3.2 km/h 82% 0.0 mm 271 W/m2
11:44 18.3 °C 15.2 °C 1016.9 hPa Calm     82% 0.0 mm 246 W/m2
11:49 18.3 °C 15.2 °C 1016.9 hPa Calm   1.6 km/h 82% 0.0 mm 308 W/m2
11:54 18.4 °C 15.6 °C 1016.9 hPa Calm   3.2 km/h 84% 0.0 mm 339 W/m2
11:59 18.4 °C 15.5 °C 1016.9 hPa West 1.4 km/h 3.2 km/h 83% 0.0 mm 341 W/m2
12:04 18.4 °C 15.3 °C 1016.9 hPa West 3.2 km/h 3.2 km/h 82% 0.0 mm 461 W/m2
12:09 18.6 °C 15.5 °C 1016.9 hPa West 1.4 km/h 6.4 km/h 82% 0.0 mm 454 W/m2
12:14 18.6 °C 15.5 °C 1016.9 hPa WNW 3.2 km/h 3.2 km/h 82% 0.0 mm 536 W/m2
12:19 18.6 °C 14.7 °C 1016.9 hPa ESE 3.2 km/h 11.3 km/h 78% 0.0 mm 526 W/m2
12:24 18.8 °C 15.1 °C 1016.9 hPa West 4.7 km/h 11.3 km/h 79% 0.0 mm 517 W/m2
12:29 18.8 °C 15.3 °C 1016.9 hPa NW 1.4 km/h 6.4 km/h 80% 0.0 mm 461 W/m2
12:34 18.9 °C 15.2 °C 1016.9 hPa West 1.4 km/h 11.3 km/h 79% 0.0 mm 441 W/m2
12:39 19.1 °C 15.4 °C 1016.9 hPa West 3.2 km/h 4.8 km/h 79% 0.0 mm 397 W/m2
12:44 19.1 °C 15.4 °C 1016.9 hPa WSW 3.2 km/h 4.8 km/h 79% 0.0 mm 417 W/m2
12:49 19.3 °C 15.2 °C 1016.9 hPa West 1.4 km/h 3.2 km/h 77% 0.0 mm 536 W/m2
12:54 19.5 °C 15.6 °C 1016.9 hPa West 1.4 km/h 4.8 km/h 78% 0.0 mm 439 W/m2
12:59 19.9 °C 15.5 °C 1016.6 hPa ENE 1.4 km/h 6.4 km/h 76% 0.0 mm 1222 W/m2
13:04 20.2 °C 15.8 °C 1016.6 hPa East 6.4 km/h 6.4 km/h 76% 0.0 mm 1137 W/m2
13:09 20.2 °C 15.4 °C 1016.6 hPa ENE 3.2 km/h 4.8 km/h 74% 0.0 mm 332 W/m2
13:14 20.3 °C 15.7 °C 1016.6 hPa West 4.7 km/h 11.3 km/h 75% 0.0 mm 292 W/m2
13:19 20.1 °C 15.5 °C 1016.6 hPa WNW 7.9 km/h 8 km/h 75% 0.0 mm 381 W/m2
13:24 20.1 °C 15.5 °C 1016.6 hPa WNW 1.4 km/h 4.8 km/h 75% 0.0 mm 431 W/m2
13:29 20.2 °C 15.8 °C 1016.6 hPa WNW 3.2 km/h 8 km/h 76% 0.0 mm 803 W/m2
13:34 20.4 °C 14.5 °C 1016.6 hPa NW 1.4 km/h 6.4 km/h 69% 0.0 mm 803 W/m2
13:39 20.7 °C 15.3 °C 1016.3 hPa WNW 1.4 km/h 6.4 km/h 71% 0.0 mm 1071 W/m2
13:44 20.9 °C 15.2 °C 1016.3 hPa WSW 1.4 km/h 1.6 km/h 70% 0.0 mm 963 W/m2
13:49 21.2 °C 14.6 °C 1016.3 hPa WSW 4.7 km/h 6.4 km/h 66% 0.0 mm 951 W/m2
13:54 21.2 °C 14.6 °C 1016.3 hPa North 4.7 km/h 9.7 km/h 66% 0.0 mm 970 W/m2
13:59 21.2 °C 15.3 °C 1016.3 hPa NW 3.2 km/h 6.4 km/h 69% 0.0 mm 984 W/m2
14:04 21.3 °C 15.8 °C 1016.3 hPa WSW 3.2 km/h 9.7 km/h 71% 0.0 mm 977 W/m2
14:09 21.3 °C 14.5 °C 1016.3 hPa WNW 6.4 km/h 9.7 km/h 65% 0.0 mm 1034 W/m2
14:14 21.4 °C 14.5 °C 1016.3 hPa West 4.7 km/h 8 km/h 65% 0.0 mm 984 W/m2
14:19 21.7 °C 14.3 °C 1016.3 hPa Calm   6.4 km/h 63% 0.0 mm 979 W/m2
14:24 21.7 °C 14.8 °C 1016.3 hPa NNW 3.2 km/h 6.4 km/h 65% 0.0 mm 983 W/m2
14:29 21.6 °C 15.7 °C 1016.3 hPa WSW 3.2 km/h 4.8 km/h 69% 0.0 mm 997 W/m2
14:34 21.8 °C 15.2 °C 1015.9 hPa SSW 3.2 km/h 6.4 km/h 66% 0.0 mm 1025 W/m2
14:39 22 °C 14.9 °C 1015.9 hPa NW 3.2 km/h 8 km/h 64% 0.0 mm 1041 W/m2
14:44 22.3 °C 15.4 °C 1015.9 hPa West 3.2 km/h 6.4 km/h 65% 0.0 mm 1060 W/m2
14:49 22.6 °C 15.2 °C 1015.9 hPa SW 7.9 km/h 8 km/h 63% 0.0 mm 1013 W/m2
14:54 22.6 °C 14.9 °C 1015.9 hPa Calm   4.8 km/h 62% 0.0 mm 1005 W/m2
14:59 22.5 °C 14.1 °C 1015.9 hPa Calm   6.4 km/h 59% 0.0 mm 1039 W/m2
15:04 22.5 °C 14.9 °C 1015.9 hPa WNW 3.2 km/h 11.3 km/h 62% 0.0 mm 988 W/m2
15:09 22.7 °C 15.5 °C 1015.6 hPa WNW 7.9 km/h 8 km/h 64% 0.0 mm 1005 W/m2
15:14 22.9 °C 15.2 °C 1015.9 hPa West 4.7 km/h 8 km/h 62% 0.0 mm 1005 W/m2
15:19 22.9 °C 15 °C 1015.6 hPa WNW 3.2 km/h 8 km/h 61% 0.0 mm 1028 W/m2
15:24 22.8 °C 16.1 °C 1015.9 hPa Calm   3.2 km/h 66% 0.0 mm 216 W/m2
15:29 22.6 °C 14.9 °C 1015.9 hPa Calm   4.8 km/h 62% 0.0 mm 195 W/m2
15:34 22.4 °C 14.8 °C 1015.9 hPa Calm   1.6 km/h 62% 0.0 mm 246 W/m2
15:39 22.3 °C 14.7 °C 1015.6 hPa West 3.2 km/h 3.2 km/h 62% 0.0 mm 241 W/m2
15:44 22.1 °C 14.5 °C 1015.6 hPa Calm   1.6 km/h 62% 0.0 mm 262 W/m2
15:49 22.1 °C 15.2 °C 1015.6 hPa NW 6.4 km/h 11.3 km/h 65% 0.0 mm 352 W/m2
15:54 22.3 °C 14.7 °C 1015.6 hPa NW 1.4 km/h 6.4 km/h 62% 0.0 mm 1028 W/m2
15:59 22.7 °C 15 °C 1015.6 hPa WSW 4.7 km/h 9.7 km/h 62% 0.0 mm 1011 W/m2
16:04 22.8 °C 15.4 °C 1015.6 hPa WSW 4.7 km/h 6.4 km/h 63% 0.0 mm 250 W/m2
16:09 22.7 °C 15 °C 1015.6 hPa Calm   4.8 km/h 62% 0.0 mm 257 W/m2
16:14 22.6 °C 15.2 °C 1015.2 hPa WNW 1.4 km/h 4.8 km/h 63% 0.0 mm 260 W/m2
16:19 22.4 °C 15.3 °C 1015.2 hPa WSW 1.4 km/h 4.8 km/h 64% 0.0 mm 248 W/m2
16:24 22.3 °C 15.4 °C 1015.2 hPa WSW 1.4 km/h 4.8 km/h 65% 0.0 mm 246 W/m2
16:29 22.2 °C 15.3 °C 1015.2 hPa Calm   1.6 km/h 65% 0.0 mm 244 W/m2
16:34 22.2 °C 15.3 °C 1015.2 hPa West 3.2 km/h 4.8 km/h 65% 0.0 mm 237 W/m2
16:39 22.1 °C 15.4 °C 1015.2 hPa WSW 1.4 km/h 3.2 km/h 66% 0.0 mm 236 W/m2
16:44 22.1 °C 15.9 °C 1015.2 hPa SW 1.4 km/h 4.8 km/h 68% 0.0 mm 234 W/m2
16:49 22 °C 15.6 °C 1015.2 hPa ENE 3.2 km/h 4.8 km/h 67% 0.0 mm 241 W/m2
16:54 21.9 °C 15 °C 1015.2 hPa NE 1.4 km/h 1.6 km/h 65% 0.0 mm 253 W/m2
16:59 22 °C 15.4 °C 1014.9 hPa Calm   3.2 km/h 66% 0.0 mm 316 W/m2
17:04 22.1 °C 15.4 °C 1014.9 hPa East 3.2 km/h 3.2 km/h 66% 0.0 mm 357 W/m2
17:09 22.2 °C 15.3 °C 1014.9 hPa East 1.4 km/h 6.4 km/h 65% 0.0 mm 425 W/m2
17:14 22.4 °C 15.3 °C 1014.9 hPa East 3.2 km/h 6.4 km/h 64% 0.0 mm 610 W/m2
17:19 22.6 °C 15.4 °C 1014.9 hPa NNW 3.2 km/h 3.2 km/h 64% 0.0 mm 466 W/m2
17:24 23 °C 15.3 °C 1014.9 hPa WSW 3.2 km/h 6.4 km/h 62% 0.0 mm 998 W/m2
17:29 23.1 °C 15.4 °C 1014.6 hPa SSE 1.4 km/h 3.2 km/h 62% 0.0 mm 487 W/m2
17:34 23.3 °C 15.1 °C 1014.6 hPa Calm   1.6 km/h 60% 0.0 mm 698 W/m2
17:39 23.7 °C 15.2 °C 1014.6 hPa ESE 3.2 km/h 6.4 km/h 59% 0.0 mm 824 W/m2
17:44 23.9 °C 14.9 °C 1014.6 hPa Calm   1.6 km/h 57% 0.0 mm 631 W/m2
17:49 23.9 °C 15.1 °C 1014.6 hPa Calm   3.2 km/h 58% 0.0 mm 218 W/m2
17:54 23.8 °C 15 °C 1014.6 hPa Calm   1.6 km/h 58% 0.0 mm 167 W/m2
17:59 23.6 °C 15.4 °C 1014.6 hPa Calm   4.8 km/h 60% 0.0 mm 137 W/m2
18:04 23.4 °C 16 °C 1014.2 hPa Calm     63% 0.0 mm 193 W/m2
18:09 23.4 °C 14.9 °C 1014.2 hPa NE 1.4 km/h 4.8 km/h 59% 0.0 mm 476 W/m2
18:14 23.7 °C 15.5 °C 1014.2 hPa WNW 1.4 km/h 3.2 km/h 60% 0.0 mm 420 W/m2
18:19 23.9 °C 15.4 °C 1014.2 hPa Calm   1.6 km/h 59% 0.0 mm 383 W/m2
18:24 24.1 °C 15.3 °C 1014.2 hPa ENE 1.4 km/h 3.2 km/h 58% 0.0 mm 267 W/m2
18:29 24.1 °C 15.6 °C 1014.2 hPa ENE 1.4 km/h 1.6 km/h 59% 0.0 mm 461 W/m2
18:34 24.2 °C 15.4 °C 1014.2 hPa ESE 3.2 km/h 3.2 km/h 58% 0.0 mm 446 W/m2
18:39 24.3 °C 16 °C 1014.2 hPa South 1.4 km/h 6.4 km/h 60% 0.0 mm 408 W/m2
18:44 24.4 °C 15.6 °C 1014.2 hPa ENE 3.2 km/h 3.2 km/h 58% 0.0 mm 362 W/m2
18:49 24.2 °C 15.1 °C 1013.9 hPa Calm   3.2 km/h 57% 0.0 mm 301 W/m2
18:54 23.9 °C 15.9 °C 1014.2 hPa Calm   1.6 km/h 61% 0.0 mm 332 W/m2
18:59 24.1 °C 16.1 °C 1014.2 hPa Calm   1.6 km/h 61% 0.0 mm 146 W/m2
19:04 24.1 °C 15.3 °C 1014.2 hPa WNW 1.4 km/h 3.2 km/h 58% 0.0 mm 197 W/m2
19:09 23.9 °C 15.1 °C 1013.9 hPa West 1.4 km/h 3.2 km/h 58% 0.0 mm 229 W/m2
19:15 23.8 °C 15.3 °C 1013.9 hPa Calm   1.6 km/h 59% 0.0 mm 237 W/m2
19:20 23.9 °C 15.7 °C 1013.9 hPa Calm   3.2 km/h 60% 0.0 mm 155 W/m2
19:25 23.9 °C 16.4 °C 1013.9 hPa Calm   1.6 km/h 63% 0.0 mm 128 W/m2
19:30 23.8 °C 16.3 °C 1013.9 hPa Calm     63% 0.0 mm 93 W/m2
19:35 23.4 °C 16.7 °C 1013.9 hPa Calm     66% 0.0 mm 83 W/m2
19:40 23.2 °C 16.7 °C 1013.9 hPa Calm     67% 0.0 mm 81 W/m2
19:45 22.9 °C 16.7 °C 1013.9 hPa Calm     68% 0.0 mm 81 W/m2
19:50 22.6 °C 16.6 °C 1013.9 hPa Calm     69% 0.0 mm 83 W/m2
19:55 22.3 °C 16.6 °C 1013.9 hPa Calm     70% 0.0 mm 86 W/m2
20:00 22.1 °C 16.6 °C 1013.9 hPa Calm     71% 0.0 mm 77 W/m2
20:05 21.8 °C 16.5 °C 1013.9 hPa Calm     72% 0.0 mm 72 W/m2
20:10 21.6 °C 16.6 °C 1013.9 hPa Calm     73% 0.0 mm 69 W/m2
20:15 21.4 °C 16.4 °C 1013.9 hPa Calm     73% 0.0 mm 67 W/m2
20:20 21.2 °C 16.2 °C 1013.9 hPa Calm     73% 0.0 mm 62 W/m2
20:25 21 °C 16 °C 1013.9 hPa Calm     73% 0.0 mm 56 W/m2
20:30 20.9 °C 16.1 °C 1013.5 hPa SW 1.4 km/h 1.6 km/h 74% 0.0 mm 54 W/m2
20:35 20.7 °C 15.9 °C 1013.5 hPa Calm   3.2 km/h 74% 0.0 mm 74 W/m2
20:40 20.7 °C 16.1 °C 1013.5 hPa Calm     75% 0.0 mm 76 W/m2
20:45 20.7 °C 15.9 °C 1013.5 hPa Calm     74% 0.0 mm 67 W/m2
20:50 20.8 °C 16 °C 1013.5 hPa Calm     74% 0.0 mm 51 W/m2
20:55 20.9 °C 16.1 °C 1013.5 hPa Calm     74% 0.0 mm 39 W/m2
21:00 20.9 °C 15.9 °C 1013.5 hPa Calm     73% 0.0 mm 35 W/m2
21:05 20.8 °C 15.6 °C 1013.5 hPa Calm     72% 0.0 mm 32 W/m2
21:15 20.6 °C 15.6 °C 1013.5 hPa Calm     73% 0.0 mm 21 W/m2
21:20 20.4 °C 15.2 °C 1013.5 hPa Calm     72% 0.0 mm 19 W/m2
21:25 20.1 °C 15.1 °C 1013.5 hPa Calm     73% 0.0 mm 14 W/m2
21:30 19.8 °C 15 °C 1013.5 hPa Calm     74% 0.0 mm 9 W/m2
21:35 19.6 °C 15 °C 1013.5 hPa Calm     75% 0.0 mm 5 W/m2
21:40 19.3 °C 14.8 °C 1013.5 hPa Calm     75% 0.0 mm 0 W/m2
21:45 19.1 °C 14.8 °C 1013.5 hPa Calm     76% 0.0 mm 0 W/m2
21:50 18.9 °C 14.6 °C 1013.5 hPa Calm     76% 0.0 mm 0 W/m2
21:55 18.8 °C 14.7 °C 1013.5 hPa Calm     77% 0.0 mm 0 W/m2
22:00 18.6 °C 14.7 °C 1013.5 hPa Calm     78% 0.0 mm 0 W/m2
22:05 18.3 °C 14.6 °C 1013.5 hPa Calm     79% 0.0 mm 0 W/m2
22:10 18.2 °C 14.7 °C 1013.5 hPa Calm     80% 0.0 mm 0 W/m2
22:15 18 °C 14.9 °C 1013.5 hPa Calm     82% 0.0 mm 0 W/m2
22:20 17.8 °C 14.9 °C 1013.9 hPa Calm     83% 0.0 mm 0 W/m2
22:25 17.7 °C 14.8 °C 1013.5 hPa Calm     83% 0.0 mm 0 W/m2
22:31 17.6 °C 14.9 °C 1013.5 hPa Calm     84% 0.0 mm 0 W/m2
22:36 17.4 °C 14.7 °C 1013.9 hPa Calm     84% 0.0 mm 0 W/m2
22:41 17.4 °C 14.9 °C 1013.5 hPa Calm     85% 0.0 mm 0 W/m2
22:46 17.2 °C 14.7 °C 1013.5 hPa Calm     85% 0.0 mm 0 W/m2
22:51 17.1 °C 14.6 °C 1013.5 hPa Calm     85% 0.0 mm 0 W/m2
22:56 17 °C 14.6 °C 1013.5 hPa Calm     86% 0.0 mm 0 W/m2
23:01 16.9 °C 14.5 °C 1013.5 hPa Calm     86% 0.0 mm 0 W/m2
23:06 16.8 °C 14.4 °C 1013.5 hPa Calm     86% 0.0 mm 0 W/m2
23:11 16.8 °C 14.6 °C 1013.5 hPa Calm     87% 0.0 mm 0 W/m2
23:16 16.7 °C 14.7 °C 1013.5 hPa Calm     88% 0.0 mm 0 W/m2
23:21 16.7 °C 14.5 °C 1013.5 hPa Calm     87% 0.0 mm 0 W/m2
23:26 16.6 °C 14.6 °C 1013.2 hPa Calm     88% 0.0 mm 0 W/m2
23:31 16.5 °C 14.5 °C 1013.2 hPa Calm     88% 0.0 mm 0 W/m2
23:36 16.4 °C 14.6 °C 1013.2 hPa Calm     89% 0.0 mm 0 W/m2
23:41 16.3 °C 14.5 °C 1013.2 hPa Calm     89% 0.0 mm 0 W/m2
23:46 16.2 °C 14.4 °C 1013.2 hPa Calm     89% 0.0 mm 0 W/m2
23:51 16.2 °C 14.4 °C 1013.2 hPa Calm     89% 0.0 mm 0 W/m2
23:56 16.1 °C 14.3 °C 1013.2 hPa Calm     89% 0.0 mm 0 W/m2
Juneau County Weather
Compliments of Weather Underground - 4 mb